sensor_id;sensor_type;location;lat;lon;timestamp;pressure;altitude;pressure_sealevel;temperature;humidity
78643;BME280;67954;47.618;17.606;2023-04-25T00:00:08;99430.69;;;12.01;69.17
78643;BME280;67954;47.618;17.606;2023-04-25T00:00:40;99433.88;;;11.97;69.03
78643;BME280;67954;47.618;17.606;2023-04-25T00:01:11;99438.09;;;11.99;69.00
78643;BME280;67954;47.618;17.606;2023-04-25T00:01:43;99430.19;;;11.98;69.05
78643;BME280;67954;47.618;17.606;2023-04-25T00:02:15;99424.34;;;11.94;69.13
78643;BME280;67954;47.618;17.606;2023-04-25T00:02:46;99438.81;;;11.93;68.69
78643;BME280;67954;47.618;17.606;2023-04-25T00:03:17;99430.22;;;11.90;68.78
78643;BME280;67954;47.618;17.606;2023-04-25T00:03:49;99431.03;;;11.98;69.01
78643;BME280;67954;47.618;17.606;2023-04-25T00:04:19;99435.03;;;12.02;69.38
78643;BME280;67954;47.618;17.606;2023-04-25T00:04:51;99434.88;;;12.04;68.83
78643;BME280;67954;47.618;17.606;2023-04-25T00:05:23;99427.81;;;12.03;68.96
78643;BME280;67954;47.618;17.606;2023-04-25T00:05:54;99429.84;;;12.01;68.79
78643;BME280;67954;47.618;17.606;2023-04-25T00:06:27;99431.38;;;11.95;68.63
78643;BME280;67954;47.618;17.606;2023-04-25T00:06:59;99436.75;;;11.95;68.50
78643;BME280;67954;47.618;17.606;2023-04-25T00:07:31;99430.19;;;11.98;68.95
78643;BME280;67954;47.618;17.606;2023-04-25T00:08:03;99434.25;;;11.94;68.19
78643;BME280;67954;47.618;17.606;2023-04-25T00:08:35;99426.19;;;11.94;68.59
78643;BME280;67954;47.618;17.606;2023-04-25T00:09:06;99432.88;;;11.98;69.03
78643;BME280;67954;47.618;17.606;2023-04-25T00:09:39;99437.78;;;11.94;68.80
78643;BME280;67954;47.618;17.606;2023-04-25T00:10:11;99431.41;;;11.87;68.21
78643;BME280;67954;47.618;17.606;2023-04-25T00:10:42;99434.78;;;11.89;69.08
78643;BME280;67954;47.618;17.606;2023-04-25T00:11:13;99426.88;;;11.88;68.83
78643;BME280;67954;47.618;17.606;2023-04-25T00:11:43;99428.56;;;11.89;68.21
78643;BME280;67954;47.618;17.606;2023-04-25T00:12:15;99435.78;;;11.88;68.80
78643;BME280;67954;47.618;17.606;2023-04-25T00:12:47;99432.59;;;11.93;68.98
78643;BME280;67954;47.618;17.606;2023-04-25T00:13:18;99428.72;;;11.87;68.46
78643;BME280;67954;47.618;17.606;2023-04-25T00:13:49;99425.88;;;11.89;68.48
78643;BME280;67954;47.618;17.606;2023-04-25T00:14:21;99432.09;;;11.89;68.84
78643;BME280;67954;47.618;17.606;2023-04-25T00:14:53;99432.59;;;11.93;68.67
78643;BME280;67954;47.618;17.606;2023-04-25T00:15:25;99435.28;;;11.93;68.86
78643;BME280;67954;47.618;17.606;2023-04-25T00:15:57;99434.44;;;11.92;68.42
78643;BME280;67954;47.618;17.606;2023-04-25T00:16:28;99440.09;;;11.97;68.32
78643;BME280;67954;47.618;17.606;2023-04-25T00:17:01;99436.91;;;12.02;68.99
78643;BME280;67954;47.618;17.606;2023-04-25T00:17:33;99438.09;;;11.99;68.13
78643;BME280;67954;47.618;17.606;2023-04-25T00:18:05;99437.41;;;11.97;68.31
78643;BME280;67954;47.618;17.606;2023-04-25T00:18:36;99432.94;;;11.90;68.15
78643;BME280;67954;47.618;17.606;2023-04-25T00:19:08;99437.28;;;11.91;68.26
78643;BME280;67954;47.618;17.606;2023-04-25T00:19:39;99431.75;;;11.92;68.22
78643;BME280;67954;47.618;17.606;2023-04-25T00:20:11;99431.56;;;11.94;68.60
78643;BME280;67954;47.618;17.606;2023-04-25T00:20:43;99434.91;;;11.96;68.40
78643;BME280;67954;47.618;17.606;2023-04-25T00:21:17;99435.56;;;11.98;68.57
78643;BME280;67954;47.618;17.606;2023-04-25T00:21:48;99438.59;;;11.95;67.77
78643;BME280;67954;47.618;17.606;2023-04-25T00:22:20;99436.47;;;11.90;68.15
78643;BME280;67954;47.618;17.606;2023-04-25T00:22:51;99438.47;;;11.88;68.36
78643;BME280;67954;47.618;17.606;2023-04-25T00:23:23;99433.94;;;11.89;67.88
78643;BME280;67954;47.618;17.606;2023-04-25T00:23:55;99432.75;;;11.91;68.38
78643;BME280;67954;47.618;17.606;2023-04-25T00:24:26;99438.31;;;11.90;68.16
78643;BME280;67954;47.618;17.606;2023-04-25T00:24:57;99435.63;;;11.90;67.98
78643;BME280;67954;47.618;17.606;2023-04-25T00:25:30;99430.41;;;11.88;68.07
78643;BME280;67954;47.618;17.606;2023-04-25T00:26:01;99426.34;;;11.92;68.13
78643;BME280;67954;47.618;17.606;2023-04-25T00:26:33;99437.66;;;11.88;67.55
78643;BME280;67954;47.618;17.606;2023-04-25T00:27:05;99431.94;;;11.82;68.24
78643;BME280;67954;47.618;17.606;2023-04-25T00:27:36;99435.97;;;11.87;67.76
78643;BME280;67954;47.618;17.606;2023-04-25T00:28:07;99435.97;;;11.87;68.16
78643;BME280;67954;47.618;17.606;2023-04-25T00:28:39;99434.84;;;11.81;68.04
78643;BME280;67954;47.618;17.606;2023-04-25T00:29:10;99442.69;;;11.82;68.12
78643;BME280;67954;47.618;17.606;2023-04-25T00:29:40;99435.97;;;11.87;67.85
78643;BME280;67954;47.618;17.606;2023-04-25T00:30:13;99431.59;;;11.86;67.71
78643;BME280;67954;47.618;17.606;2023-04-25T00:30:45;99437.31;;;11.82;67.77
78643;BME280;67954;47.618;17.606;2023-04-25T00:31:17;99435.28;;;11.85;67.38
78643;BME280;67954;47.618;17.606;2023-04-25T00:31:48;99433.63;;;11.84;67.54
78643;BME280;67954;47.618;17.606;2023-04-25T00:32:19;99439.66;;;11.86;68.02
78643;BME280;67954;47.618;17.606;2023-04-25T00:32:50;99435.97;;;11.87;67.71
78643;BME280;67954;47.618;17.606;2023-04-25T00:33:22;99436.81;;;11.87;67.80
78643;BME280;67954;47.618;17.606;2023-04-25T00:33:52;99440.00;;;11.82;67.15
78643;BME280;67954;47.618;17.606;2023-04-25T00:34:23;99435.84;;;11.80;67.75
78643;BME280;67954;47.618;17.606;2023-04-25T00:34:54;99444.38;;;11.84;67.88
78643;BME280;67954;47.618;17.606;2023-04-25T00:35:28;99441.03;;;11.81;67.08
78643;BME280;67954;47.618;17.606;2023-04-25T00:35:58;99437.53;;;11.81;67.34
78643;BME280;67954;47.618;17.606;2023-04-25T00:36:29;99437.66;;;11.88;67.68
78643;BME280;67954;47.618;17.606;2023-04-25T00:37:01;99435.97;;;11.87;67.29
78643;BME280;67954;47.618;17.606;2023-04-25T00:37:32;99441.19;;;11.88;67.21
78643;BME280;67954;47.618;17.606;2023-04-25T00:38:03;99434.28;;;11.86;67.63
78643;BME280;67954;47.618;17.606;2023-04-25T00:38:35;99439.50;;;11.87;67.96
78643;BME280;67954;47.618;17.606;2023-04-25T00:39:06;99439.00;;;11.84;67.17
78643;BME280;67954;47.618;17.606;2023-04-25T00:39:37;99436.81;;;11.87;67.88
78643;BME280;67954;47.618;17.606;2023-04-25T00:40:09;99440.50;;;11.86;67.50
78643;BME280;67954;47.618;17.606;2023-04-25T00:40:40;99439.16;;;11.90;67.90
78643;BME280;67954;47.618;17.606;2023-04-25T00:41:14;99436.47;;;11.90;67.29
78643;BME280;67954;47.618;17.606;2023-04-25T00:41:45;99445.88;;;11.86;67.42
78643;BME280;67954;47.618;17.606;2023-04-25T00:42:17;99435.13;;;11.86;67.74
78643;BME280;67954;47.618;17.606;2023-04-25T00:42:49;99436.63;;;11.89;66.97
78643;BME280;67954;47.618;17.606;2023-04-25T00:43:22;99437.47;;;11.89;67.70
78643;BME280;67954;47.618;17.606;2023-04-25T00:43:54;99439.16;;;11.90;67.41
78643;BME280;67954;47.618;17.606;2023-04-25T00:44:27;99437.16;;;11.84;67.35
78643;BME280;67954;47.618;17.606;2023-04-25T00:45:00;99433.28;;;11.87;67.50
78643;BME280;67954;47.618;17.606;2023-04-25T00:45:38;99440.16;;;11.89;67.81
78643;BME280;67954;47.618;17.606;2023-04-25T00:46:11;99432.44;;;11.86;67.80
78643;BME280;67954;47.618;17.606;2023-04-25T00:46:42;99434.94;;;11.88;67.53
78643;BME280;67954;47.618;17.606;2023-04-25T00:47:15;99431.91;;;11.91;67.81
78643;BME280;67954;47.618;17.606;2023-04-25T00:47:46;99434.13;;;11.87;67.42
78643;BME280;67954;47.618;17.606;2023-04-25T00:48:18;99436.97;;;11.86;68.29
78643;BME280;67954;47.618;17.606;2023-04-25T00:48:50;99434.28;;;11.86;67.49
78643;BME280;67954;47.618;17.606;2023-04-25T00:49:20;99440.50;;;11.86;67.71
78643;BME280;67954;47.618;17.606;2023-04-25T00:49:51;99432.44;;;11.86;67.65
78643;BME280;67954;47.618;17.606;2023-04-25T00:50:24;99436.63;;;11.89;68.04
78643;BME280;67954;47.618;17.606;2023-04-25T00:50:57;99436.28;;;11.92;68.16
78643;BME280;67954;47.618;17.606;2023-04-25T00:51:29;99446.69;;;11.95;67.93
78643;BME280;67954;47.618;17.606;2023-04-25T00:52:02;99436.97;;;11.94;68.09
78643;BME280;67954;47.618;17.606;2023-04-25T00:52:33;99445.03;;;11.94;67.37
78643;BME280;67954;47.618;17.606;2023-04-25T00:53:04;99445.88;;;11.86;67.71
78643;BME280;67954;47.618;17.606;2023-04-25T00:53:36;99434.13;;;11.87;67.63
78643;BME280;67954;47.618;17.606;2023-04-25T00:54:07;99440.00;;;11.82;67.77
78643;BME280;67954;47.618;17.606;2023-04-25T00:54:38;99435.97;;;11.87;68.07
78643;BME280;67954;47.618;17.606;2023-04-25T00:55:11;99439.16;;;11.90;68.02
78643;BME280;67954;47.618;17.606;2023-04-25T00:55:42;99447.56;;;11.87;67.64
78643;BME280;67954;47.618;17.606;2023-04-25T00:56:13;99443.19;;;11.86;68.18
78643;BME280;67954;47.618;17.606;2023-04-25T00:56:45;99442.53;;;11.84;67.57
78643;BME280;67954;47.618;17.606;2023-04-25T00:57:16;99446.91;;;11.85;67.96
78643;BME280;67954;47.618;17.606;2023-04-25T00:57:47;99445.41;;;11.82;68.13
78643;BME280;67954;47.618;17.606;2023-04-25T00:58:19;99447.41;;;11.89;68.06
78643;BME280;67954;47.618;17.606;2023-04-25T00:58:53;99438.66;;;11.87;68.31
78643;BME280;67954;47.618;17.606;2023-04-25T00:59:25;99446.91;;;11.85;67.67
78643;BME280;67954;47.618;17.606;2023-04-25T00:59:56;99438.66;;;11.87;67.78
78643;BME280;67954;47.618;17.606;2023-04-25T01:00:28;99446.91;;;11.85;67.76
78643;BME280;67954;47.618;17.606;2023-04-25T01:00:59;99453.78;;;11.88;68.00
78643;BME280;67954;47.618;17.606;2023-04-25T01:01:32;99442.06;;;11.80;67.78
78643;BME280;67954;47.618;17.606;2023-04-25T01:02:05;99446.25;;;11.75;67.11
78643;BME280;67954;47.618;17.606;2023-04-25T01:02:37;99442.22;;;11.71;67.91
78643;BME280;67954;47.618;17.606;2023-04-25T01:03:08;99445.91;;;11.70;68.21
78643;BME280;67954;47.618;17.606;2023-04-25T01:03:40;99449.09;;;11.73;68.33
78643;BME280;67954;47.618;17.606;2023-04-25T01:04:13;99448.81;;;11.76;68.14
78643;BME280;67954;47.618;17.606;2023-04-25T01:04:44;99448.81;;;11.76;68.70
78643;BME280;67954;47.618;17.606;2023-04-25T01:05:15;99448.94;;;11.83;68.42
78643;BME280;67954;47.618;17.606;2023-04-25T01:05:46;99442.25;;;11.79;67.59
78643;BME280;67954;47.618;17.606;2023-04-25T01:06:19;99444.09;;;11.78;68.01
78643;BME280;67954;47.618;17.606;2023-04-25T01:06:50;99452.16;;;11.78;67.93
78643;BME280;67954;47.618;17.606;2023-04-25T01:07:20;99442.69;;;11.82;67.90
78643;BME280;67954;47.618;17.606;2023-04-25T01:07:52;99451.31;;;11.78;67.12
78643;BME280;67954;47.618;17.606;2023-04-25T01:08:24;99441.41;;;11.78;68.32
78643;BME280;67954;47.618;17.606;2023-04-25T01:08:56;99444.94;;;11.79;68.22
78643;BME280;67954;47.618;17.606;2023-04-25T01:09:30;99447.78;;;11.69;68.30
78643;BME280;67954;47.618;17.606;2023-04-25T01:10:01;99451.31;;;11.70;68.21
78643;BME280;67954;47.618;17.606;2023-04-25T01:10:32;99441.22;;;11.72;67.76
78643;BME280;67954;47.618;17.606;2023-04-25T01:11:03;99440.38;;;11.71;68.03
78643;BME280;67954;47.618;17.606;2023-04-25T01:11:35;99443.72;;;11.73;67.97
78643;BME280;67954;47.618;17.606;2023-04-25T01:12:06;99445.09;;;11.69;67.74
78643;BME280;67954;47.618;17.606;2023-04-25T01:12:37;99443.28;;;11.62;67.88
78643;BME280;67954;47.618;17.606;2023-04-25T01:13:09;99441.25;;;11.64;67.73
78643;BME280;67954;47.618;17.606;2023-04-25T01:13:40;99444.28;;;11.61;67.81
78643;BME280;67954;47.618;17.606;2023-04-25T01:14:11;99442.59;;;11.60;67.46
78643;BME280;67954;47.618;17.606;2023-04-25T01:14:43;99437.72;;;11.63;68.19
78643;BME280;67954;47.618;17.606;2023-04-25T01:15:14;99438.56;;;11.64;67.46
78643;BME280;67954;47.618;17.606;2023-04-25T01:15:44;99443.09;;;11.63;67.20
78643;BME280;67954;47.618;17.606;2023-04-25T01:16:16;99440.41;;;11.63;67.46
78643;BME280;67954;47.618;17.606;2023-04-25T01:16:49;99436.53;;;11.66;67.69
78643;BME280;67954;47.618;17.606;2023-04-25T01:17:20;99438.53;;;11.72;67.55
78643;BME280;67954;47.618;17.606;2023-04-25T01:17:52;99441.25;;;11.64;67.31
78643;BME280;67954;47.618;17.606;2023-04-25T01:18:23;99443.22;;;11.70;67.52
78643;BME280;67954;47.618;17.606;2023-04-25T01:18:54;99442.38;;;11.69;67.68
78643;BME280;67954;47.618;17.606;2023-04-25T01:19:26;99435.53;;;11.67;67.87
78643;BME280;67954;47.618;17.606;2023-04-25T01:19:57;99445.63;;;11.57;67.07
78643;BME280;67954;47.618;17.606;2023-04-25T01:20:28;99436.56;;;11.58;67.33
78643;BME280;67954;47.618;17.606;2023-04-25T01:21:07;99436.94;;;11.55;67.12
78643;BME280;67954;47.618;17.606;2023-04-25T01:21:38;99434.38;;;11.61;66.98
78643;BME280;67954;47.618;17.606;2023-04-25T01:22:10;99442.09;;;11.64;67.68
78643;BME280;67954;47.618;17.606;2023-04-25T01:22:42;99438.53;;;11.72;67.46
78643;BME280;67954;47.618;17.606;2023-04-25T01:23:13;99441.75;;;11.75;67.11
78643;BME280;67954;47.618;17.606;2023-04-25T01:23:45;99435.00;;;11.71;66.98
78643;BME280;67954;47.618;17.606;2023-04-25T01:24:17;99434.69;;;11.66;67.24
78643;BME280;67954;47.618;17.606;2023-04-25T01:24:49;99434.19;;;11.63;67.49
78643;BME280;67954;47.618;17.606;2023-04-25T01:25:20;99434.03;;;11.64;67.56
78643;BME280;67954;47.618;17.606;2023-04-25T01:25:53;99430.66;;;11.62;67.82
78643;BME280;67954;47.618;17.606;2023-04-25T01:26:24;99431.69;;;11.61;67.53
78643;BME280;67954;47.618;17.606;2023-04-25T01:26:56;99431.00;;;11.59;67.31
78643;BME280;67954;47.618;17.606;2023-04-25T01:27:29;99434.19;;;11.63;67.90
78643;BME280;67954;47.618;17.606;2023-04-25T01:28:00;99435.22;;;11.62;67.95
78643;BME280;67954;47.618;17.606;2023-04-25T01:28:33;99432.69;;;11.60;67.80
78643;BME280;67954;47.618;17.606;2023-04-25T01:29:05;99432.50;;;11.62;67.91
78643;BME280;67954;47.618;17.606;2023-04-25T01:29:36;99431.34;;;11.56;67.60
78643;BME280;67954;47.618;17.606;2023-04-25T01:30:08;99429.69;;;11.55;67.78
78643;BME280;67954;47.618;17.606;2023-04-25T01:30:41;99430.16;;;11.59;67.43
78643;BME280;67954;47.618;17.606;2023-04-25T01:31:12;99431.19;;;11.58;67.71
78643;BME280;67954;47.618;17.606;2023-04-25T01:31:44;99428.31;;;11.59;67.88
78643;BME280;67954;47.618;17.606;2023-04-25T01:32:17;99428.31;;;11.59;67.34
78643;BME280;67954;47.618;17.606;2023-04-25T01:32:49;99429.69;;;11.55;67.70
78643;BME280;67954;47.618;17.606;2023-04-25T01:33:21;99432.38;;;11.55;67.11
78643;BME280;67954;47.618;17.606;2023-04-25T01:33:53;99426.28;;;11.61;67.32
78643;BME280;67954;47.618;17.606;2023-04-25T01:34:24;99429.50;;;11.57;67.40
78643;BME280;67954;47.618;17.606;2023-04-25T01:34:55;99428.03;;;11.54;67.27
78643;BME280;67954;47.618;17.606;2023-04-25T01:35:26;99424.50;;;11.54;66.82
78643;BME280;67954;47.618;17.606;2023-04-25T01:35:58;99424.81;;;11.51;67.01
78643;BME280;67954;47.618;17.606;2023-04-25T01:36:30;99426.16;;;11.55;67.13
78643;BME280;67954;47.618;17.606;2023-04-25T01:37:01;99424.31;;;11.55;67.07
78643;BME280;67954;47.618;17.606;2023-04-25T01:37:33;99425.13;;;11.56;66.66
78643;BME280;67954;47.618;17.606;2023-04-25T01:38:04;99422.81;;;11.53;67.03
78643;BME280;67954;47.618;17.606;2023-04-25T01:38:35;99435.41;;;11.52;66.82
78643;BME280;67954;47.618;17.606;2023-04-25T01:39:07;99433.41;;;11.46;66.73
78643;BME280;67954;47.618;17.606;2023-04-25T01:39:38;99426.34;;;11.53;67.01
78643;BME280;67954;47.618;17.606;2023-04-25T01:40:10;99422.25;;;11.57;66.93
78643;BME280;67954;47.618;17.606;2023-04-25T01:40:45;99430.72;;;11.54;66.78
78643;BME280;67954;47.618;17.606;2023-04-25T01:41:16;99418.94;;;11.55;66.83
78643;BME280;67954;47.618;17.606;2023-04-25T01:41:48;99422.63;;;11.54;66.98
78643;BME280;67954;47.618;17.606;2023-04-25T01:42:19;99418.72;;;11.57;66.96
78643;BME280;67954;47.618;17.606;2023-04-25T01:42:51;99422.63;;;11.54;67.32
78643;BME280;67954;47.618;17.606;2023-04-25T01:43:22;99434.25;;;11.46;67.28
78643;BME280;67954;47.618;17.606;2023-04-25T01:43:53;99429.03;;;11.45;66.85
78643;BME280;67954;47.618;17.606;2023-04-25T01:44:26;99427.69;;;11.49;66.82
78643;BME280;67954;47.618;17.606;2023-04-25T01:44:56;99433.75;;;11.51;66.53
78643;BME280;67954;47.618;17.606;2023-04-25T01:45:28;99428.19;;;11.44;66.59
78643;BME280;67954;47.618;17.606;2023-04-25T01:45:59;99435.25;;;11.45;66.71
78643;BME280;67954;47.618;17.606;2023-04-25T01:46:30;99425.50;;;11.44;66.59
78643;BME280;67954;47.618;17.606;2023-04-25T01:47:01;99435.59;;;11.42;66.75
78643;BME280;67954;47.618;17.606;2023-04-25T01:47:33;99433.75;;;11.43;66.81
78643;BME280;67954;47.618;17.606;2023-04-25T01:48:05;99434.59;;;11.43;66.97
78643;BME280;67954;47.618;17.606;2023-04-25T01:48:36;99432.91;;;11.42;66.44
78643;BME280;67954;47.618;17.606;2023-04-25T01:49:08;99440.16;;;11.42;67.11
78643;BME280;67954;47.618;17.606;2023-04-25T01:49:39;99439.78;;;11.45;67.06
78643;BME280;67954;47.618;17.606;2023-04-25T01:50:10;99431.38;;;11.48;66.56
78643;BME280;67954;47.618;17.606;2023-04-25T01:50:41;99433.56;;;11.44;66.70
78643;BME280;67954;47.618;17.606;2023-04-25T01:51:13;99443.50;;;11.44;66.41
78643;BME280;67954;47.618;17.606;2023-04-25T01:51:45;99441.13;;;11.49;66.49
78643;BME280;67954;47.618;17.606;2023-04-25T01:52:16;99433.41;;;11.46;65.99
78643;BME280;67954;47.618;17.606;2023-04-25T01:52:48;99430.72;;;11.46;65.86
78643;BME280;67954;47.618;17.606;2023-04-25T01:53:19;99434.41;;;11.45;66.42
78643;BME280;67954;47.618;17.606;2023-04-25T01:53:50;99433.09;;;11.41;66.24
78643;BME280;67954;47.618;17.606;2023-04-25T01:54:21;99434.41;;;11.45;66.31
78643;BME280;67954;47.618;17.606;2023-04-25T01:54:54;99435.78;;;11.41;65.56
78643;BME280;67954;47.618;17.606;2023-04-25T01:55:25;99431.59;;;11.38;65.63
78643;BME280;67954;47.618;17.606;2023-04-25T01:55:55;99425.38;;;11.38;65.98
78643;BME280;67954;47.618;17.606;2023-04-25T01:56:30;99441.50;;;11.38;65.97
78643;BME280;67954;47.618;17.606;2023-04-25T01:57:01;99435.97;;;11.39;66.45
78643;BME280;67954;47.618;17.606;2023-04-25T01:57:32;99434.13;;;11.40;65.99
78643;BME280;67954;47.618;17.606;2023-04-25T01:58:04;99431.91;;;11.43;66.11
78643;BME280;67954;47.618;17.606;2023-04-25T01:58:39;99433.56;;;11.44;66.28
78643;BME280;67954;47.618;17.606;2023-04-25T01:59:11;99427.34;;;11.44;66.00
78643;BME280;67954;47.618;17.606;2023-04-25T01:59:42;99432.75;;;11.44;65.48
78643;BME280;67954;47.618;17.606;2023-04-25T02:00:13;99438.63;;;11.48;65.99
78643;BME280;67954;47.618;17.606;2023-04-25T02:00:44;99432.22;;;11.49;65.75
78643;BME280;67954;47.618;17.606;2023-04-25T02:01:16;99431.06;;;11.43;65.73
78643;BME280;67954;47.618;17.606;2023-04-25T02:01:47;99434.25;;;11.46;65.09
78643;BME280;67954;47.618;17.606;2023-04-25T02:02:18;99436.81;;;11.40;65.71
78643;BME280;67954;47.618;17.606;2023-04-25T02:02:50;99433.44;;;11.38;65.55
78643;BME280;67954;47.618;17.606;2023-04-25T02:03:23;99431.56;;;11.46;65.46
78643;BME280;67954;47.618;17.606;2023-04-25T02:03:54;99438.97;;;11.44;65.55
78643;BME280;67954;47.618;17.606;2023-04-25T02:04:26;99437.47;;;11.42;64.97
78643;BME280;67954;47.618;17.606;2023-04-25T02:04:56;99433.94;;;11.41;64.97
78643;BME280;67954;47.618;17.606;2023-04-25T02:05:27;99437.66;;;11.40;65.24
78643;BME280;67954;47.618;17.606;2023-04-25T02:05:59;99431.91;;;11.43;64.75
78643;BME280;67954;47.618;17.606;2023-04-25T02:06:30;99428.56;;;11.41;64.97
78643;BME280;67954;47.618;17.606;2023-04-25T02:07:03;99435.44;;;11.44;65.06
78643;BME280;67954;47.618;17.606;2023-04-25T02:07:34;99433.09;;;11.41;64.50
78643;BME280;67954;47.618;17.606;2023-04-25T02:08:07;99433.44;;;11.38;64.50
78643;BME280;67954;47.618;17.606;2023-04-25T02:08:39;99431.56;;;11.46;64.63
78643;BME280;67954;47.618;17.606;2023-04-25T02:09:10;99435.44;;;11.44;64.20
78643;BME280;67954;47.618;17.606;2023-04-25T02:09:41;99431.25;;;11.41;64.38
78643;BME280;67954;47.618;17.606;2023-04-25T02:10:12;99424.84;;;11.42;65.10
78643;BME280;67954;47.618;17.606;2023-04-25T02:10:43;99429.88;;;11.45;64.57
78643;BME280;67954;47.618;17.606;2023-04-25T02:11:15;99428.03;;;11.46;64.29
78643;BME280;67954;47.618;17.606;2023-04-25T02:11:46;99434.25;;;11.46;64.51
78643;BME280;67954;47.618;17.606;2023-04-25T02:12:17;99421.97;;;11.44;64.49
78643;BME280;67954;47.618;17.606;2023-04-25T02:12:47;99431.06;;;11.43;64.92
78643;BME280;67954;47.618;17.606;2023-04-25T02:13:19;99426.88;;;11.40;64.51
78643;BME280;67954;47.618;17.606;2023-04-25T02:13:50;99422.19;;;11.34;64.60
78643;BME280;67954;47.618;17.606;2023-04-25T02:14:21;99431.75;;;11.37;64.59
78643;BME280;67954;47.618;17.606;2023-04-25T02:14:53;99430.09;;;11.36;64.56
78643;BME280;67954;47.618;17.606;2023-04-25T02:15:24;99418.16;;;11.38;64.65
78643;BME280;67954;47.618;17.606;2023-04-25T02:15:55;99422.97;;;11.43;64.86
78643;BME280;67954;47.618;17.606;2023-04-25T02:16:25;99417.81;;;11.41;64.53
78643;BME280;67954;47.618;17.606;2023-04-25T02:16:57;99417.13;;;11.39;64.59
78643;BME280;67954;47.618;17.606;2023-04-25T02:17:28;99420.28;;;11.43;64.66
78643;BME280;67954;47.618;17.606;2023-04-25T02:17:59;99411.88;;;11.46;64.89
78643;BME280;67954;47.618;17.606;2023-04-25T02:18:31;99414.75;;;11.53;64.63
78643;BME280;67954;47.618;17.606;2023-04-25T02:19:02;99430.03;;;11.44;64.12
78643;BME280;67954;47.618;17.606;2023-04-25T02:19:33;99414.44;;;11.39;64.33
78643;BME280;67954;47.618;17.606;2023-04-25T02:20:05;99411.72;;;11.48;64.64
78643;BME280;67954;47.618;17.606;2023-04-25T02:20:37;99409.19;;;11.46;64.63
78643;BME280;67954;47.618;17.606;2023-04-25T02:21:07;99421.97;;;11.44;64.56
78643;BME280;67954;47.618;17.606;2023-04-25T02:21:38;99414.91;;;11.43;64.95
78643;BME280;67954;47.618;17.606;2023-04-25T02:22:11;99417.97;;;11.40;64.10
78643;BME280;67954;47.618;17.606;2023-04-25T02:22:42;99425.03;;;11.41;64.38
78643;BME280;67954;47.618;17.606;2023-04-25T02:23:13;99420.84;;;11.38;64.30
78643;BME280;67954;47.618;17.606;2023-04-25T02:23:45;99423.53;;;11.38;64.34
78643;BME280;67954;47.618;17.606;2023-04-25T02:24:19;99420.34;;;11.35;64.55
78643;BME280;67954;47.618;17.606;2023-04-25T02:24:50;99424.19;;;11.40;64.78
78643;BME280;67954;47.618;17.606;2023-04-25T02:25:22;99422.34;;;11.41;64.76
78643;BME280;67954;47.618;17.606;2023-04-25T02:25:53;99426.53;;;11.43;64.55
78643;BME280;67954;47.618;17.606;2023-04-25T02:26:25;99427.72;;;11.41;64.49
78643;BME280;67954;47.618;17.606;2023-04-25T02:26:57;99425.22;;;11.39;64.02
78643;BME280;67954;47.618;17.606;2023-04-25T02:27:28;99419.31;;;11.36;64.07
78643;BME280;67954;47.618;17.606;2023-04-25T02:27:58;99421.97;;;11.44;64.23
78643;BME280;67954;47.618;17.606;2023-04-25T02:28:30;99422.31;;;11.49;64.56
78643;BME280;67954;47.618;17.606;2023-04-25T02:29:01;99420.28;;;11.43;64.77
78643;BME280;67954;47.618;17.606;2023-04-25T02:29:32;99427.34;;;11.44;64.65
78643;BME280;67954;47.618;17.606;2023-04-25T02:30:05;99425.69;;;11.43;64.17
78643;BME280;67954;47.618;17.606;2023-04-25T02:30:37;99432.06;;;11.50;64.96
78643;BME280;67954;47.618;17.606;2023-04-25T02:31:07;99433.44;;;11.38;64.14
78643;BME280;67954;47.618;17.606;2023-04-25T02:31:39;99422.69;;;11.38;64.28
78643;BME280;67954;47.618;17.606;2023-04-25T02:32:10;99421.69;;;11.39;64.20
78643;BME280;67954;47.618;17.606;2023-04-25T02:32:41;99426.34;;;11.45;64.66
78643;BME280;67954;47.618;17.606;2023-04-25T02:33:13;99421.00;;;11.37;64.44
78643;BME280;67954;47.618;17.606;2023-04-25T02:33:44;99421.84;;;11.37;64.34
78643;BME280;67954;47.618;17.606;2023-04-25T02:34:14;99428.75;;;11.40;64.64
78643;BME280;67954;47.618;17.606;2023-04-25T02:34:46;99425.38;;;11.38;64.36
78643;BME280;67954;47.618;17.606;2023-04-25T02:35:18;99432.09;;;11.42;64.68
78643;BME280;67954;47.618;17.606;2023-04-25T02:35:49;99434.63;;;11.35;63.95
78643;BME280;67954;47.618;17.606;2023-04-25T02:36:21;99430.41;;;11.33;64.33
78643;BME280;67954;47.618;17.606;2023-04-25T02:36:51;99428.75;;;11.32;64.42
78643;BME280;67954;47.618;17.606;2023-04-25T02:37:24;99428.75;;;11.32;64.70
78643;BME280;67954;47.618;17.606;2023-04-25T02:37:55;99429.41;;;11.34;64.27
78643;BME280;67954;47.618;17.606;2023-04-25T02:38:26;99427.06;;;11.39;64.46
78643;BME280;67954;47.618;17.606;2023-04-25T02:38:57;99423.69;;;11.37;64.54
78643;BME280;67954;47.618;17.606;2023-04-25T02:39:29;99419.81;;;11.39;65.07
78643;BME280;67954;47.618;17.606;2023-04-25T02:39:59;99431.06;;;11.43;64.83
78643;BME280;67954;47.618;17.606;2023-04-25T02:40:30;99430.75;;;11.38;64.95
78643;BME280;67954;47.618;17.606;2023-04-25T02:41:01;99427.44;;;11.28;64.13
78643;BME280;67954;47.618;17.606;2023-04-25T02:41:33;99426.91;;;11.32;64.69
78643;BME280;67954;47.618;17.606;2023-04-25T02:42:04;99431.25;;;11.33;64.18
78643;BME280;67954;47.618;17.606;2023-04-25T02:42:35;99428.75;;;11.32;64.63
78643;BME280;67954;47.618;17.606;2023-04-25T02:43:07;99427.56;;;11.34;64.59
78643;BME280;67954;47.618;17.606;2023-04-25T02:43:38;99422.03;;;11.36;64.72
78643;BME280;67954;47.618;17.606;2023-04-25T02:44:08;99428.06;;;11.30;64.46
78643;BME280;67954;47.618;17.606;2023-04-25T02:44:40;99422.84;;;11.36;64.17
78643;BME280;67954;47.618;17.606;2023-04-25T02:45:11;99426.34;;;11.45;64.96